Time;durP1;ratioP1;P1;durP2;ratioP2;P2;SDS_P1;SDS_P2;PMS_P1;PMS_P2;Temp;Humidity;BMP_temperature;BMP_pressure;BME280_temperature;BME280_humidity;BME280_pressure;Samples;Min_cycle;Max_cycle;Signal;HPM_P1;HPM_P2
2022/04/05 00:01:28;;;;;;;;;;;22.80;29.70;;;;;;5098298;28;20306;-66
2022/04/05 00:07:02;;;;;;;;;;;22.80;29.70;;;;;;5098052;28;20437;-66
2022/04/05 00:09:29;;;;;;;;;;;22.80;29.70;;;;;;5098396;28;19973;-66
2022/04/05 00:11:57;;;;;;;;;;;22.70;29.70;;;;;;5097903;28;20368;-65
2022/04/05 00:14:26;;;;;;;;;;;22.70;29.70;;;;;;5096894;28;20018;-66
2022/04/05 00:16:53;;;;;;;;;;;22.70;29.70;;;;;;5097959;28;19928;-66
2022/04/05 00:19:21;;;;;;;;;;;22.70;29.70;;;;;;5097786;28;19938;-66
2022/04/05 00:21:49;;;;;;;;;;;22.70;29.70;;;;;;5097905;28;19924;-66
2022/04/05 00:24:16;;;;;;;;;;;22.70;29.70;;;;;;5097828;28;19924;-66
2022/04/05 00:26:43;;;;;;;;;;;22.70;29.80;;;;;;5098208;28;19924;-66
2022/04/05 00:29:10;;;;;;;;;;;22.70;29.80;;;;;;5097004;28;19956;-66
2022/04/05 00:31:37;;;;;;;;;;;22.70;29.80;;;;;;5097867;28;20433;-66
2022/04/05 00:34:04;;;;;;;;;;;22.70;29.80;;;;;;5097931;28;19929;-66
2022/04/05 00:36:31;;;;;;;;;;;22.70;29.80;;;;;;5097936;28;19924;-66
2022/04/05 00:38:58;;;;;;;;;;;22.70;29.80;;;;;;5098177;28;19935;-66
2022/04/05 00:41:26;;;;;;;;;;;22.70;29.80;;;;;;5097897;28;19932;-66
2022/04/05 00:43:53;;;;;;;;;;;22.70;29.80;;;;;;5097745;28;19928;-66
2022/04/05 00:46:20;;;;;;;;;;;22.70;29.80;;;;;;5097606;28;19928;-66
2022/04/05 00:48:57;;;;;;;;;;;22.70;29.80;;;;;;5114027;28;19928;-66
2022/04/05 00:51:25;;;;;;;;;;;22.70;29.80;;;;;;5097625;28;20071;-66
2022/04/05 00:53:53;;;;;;;;;;;22.70;29.80;;;;;;5097604;28;19924;-66
2022/04/05 00:56:21;;;;;;;;;;;22.70;29.80;;;;;;5113002;28;19950;-66
2022/04/05 00:58:55;;;;;;;;;;;22.70;29.80;;;;;;5097536;28;19967;-67
2022/04/05 01:01:22;;;;;;;;;;;22.70;29.80;;;;;;5097322;28;20356;-66
2022/04/05 01:03:51;;;;;;;;;;;22.70;29.80;;;;;;5097395;28;19932;-67
2022/04/05 01:06:19;;;;;;;;;;;22.60;29.70;;;;;;5097200;28;20365;-66
2022/04/05 01:08:47;;;;;;;;;;;22.70;29.80;;;;;;5097771;28;19924;-66
2022/04/05 01:11:14;;;;;;;;;;;22.70;29.80;;;;;;5097992;28;19981;-66
2022/04/05 01:13:41;;;;;;;;;;;22.70;29.80;;;;;;5097508;28;19928;-66
2022/04/05 01:16:12;;;;;;;;;;;22.60;29.70;;;;;;5097247;28;19924;-66
2022/04/05 01:18:39;;;;;;;;;;;22.60;29.80;;;;;;5097516;28;20006;-66
2022/04/05 01:21:06;;;;;;;;;;;22.60;29.80;;;;;;5096119;28;19928;-66
2022/04/05 01:23:33;;;;;;;;;;;22.60;29.80;;;;;;5097446;28;19938;-66
2022/04/05 01:26:00;;;;;;;;;;;22.60;29.80;;;;;;5097369;28;19928;-66
2022/04/05 01:28:27;;;;;;;;;;;22.60;29.80;;;;;;5097309;28;19928;-66
2022/04/05 01:30:54;;;;;;;;;;;22.60;29.80;;;;;;5096950;28;19924;-66
2022/04/05 01:33:21;;;;;;;;;;;22.60;29.80;;;;;;5097470;28;19924;-66
2022/04/05 01:35:49;;;;;;;;;;;22.60;29.80;;;;;;5097549;28;20356;-66
2022/04/05 01:38:16;;;;;;;;;;;22.60;29.80;;;;;;5097372;28;19966;-66
2022/04/05 01:40:43;;;;;;;;;;;22.60;29.80;;;;;;5100312;28;20292;-66
2022/04/05 01:43:10;;;;;;;;;;;22.60;29.80;;;;;;5101234;28;19928;-66
2022/04/05 01:45:37;;;;;;;;;;;22.60;29.80;;;;;;5101257;28;19946;-66
2022/04/05 01:48:04;;;;;;;;;;;22.60;29.80;;;;;;5101347;28;20010;-66
2022/04/05 01:50:31;;;;;;;;;;;22.60;29.80;;;;;;5116578;28;19930;-66
2022/04/05 01:52:59;;;;;;;;;;;22.60;29.80;;;;;;5116171;28;20288;-66
2022/04/05 01:55:26;;;;;;;;;;;22.60;29.80;;;;;;5101013;28;19965;-66
2022/04/05 01:57:53;;;;;;;;;;;22.60;29.80;;;;;;5100709;28;19928;-66
2022/04/05 02:00:20;;;;;;;;;;;22.60;29.80;;;;;;5101048;28;19928;-66
2022/04/05 02:02:47;;;;;;;;;;;22.60;29.80;;;;;;5100752;28;19924;-65
2022/04/05 02:05:14;;;;;;;;;;;22.60;29.80;;;;;;5100755;28;19954;-66
2022/04/05 02:07:41;;;;;;;;;;;22.60;29.80;;;;;;5100397;28;19957;-66
2022/04/05 02:10:08;;;;;;;;;;;22.60;29.80;;;;;;5100716;28;19946;-66
2022/04/05 02:12:35;;;;;;;;;;;22.60;29.80;;;;;;5099342;28;19924;-66
2022/04/05 02:15:02;;;;;;;;;;;22.60;29.80;;;;;;5115955;28;19924;-66
2022/04/05 02:17:29;;;;;;;;;;;22.60;29.80;;;;;;5100605;28;19924;-66
2022/04/05 02:19:56;;;;;;;;;;;22.60;29.80;;;;;;5100289;28;19924;-66
2022/04/05 02:22:43;;;;;;;;;;;22.60;29.80;;;;;;5100183;28;19928;-66
2022/04/05 02:25:10;;;;;;;;;;;22.60;29.80;;;;;;5098828;28;19924;-66
2022/04/05 02:27:40;;;;;;;;;;;22.60;29.80;;;;;;5100150;28;19924;-66
2022/04/05 02:32:54;;;;;;;;;;;22.50;29.80;;;;;;5100145;28;19924;-66
2022/04/05 02:35:21;;;;;;;;;;;22.50;29.80;;;;;;5100334;28;19988;-66
2022/04/05 02:37:48;;;;;;;;;;;22.50;29.80;;;;;;5100263;28;19924;-66
2022/04/05 02:40:15;;;;;;;;;;;22.50;29.70;;;;;;5100695;28;19924;-66
2022/04/05 02:42:42;;;;;;;;;;;22.50;29.80;;;;;;5100281;28;20257;-66
2022/04/05 02:47:56;;;;;;;;;;;22.60;29.80;;;;;;5099944;28;19975;-66
2022/04/05 02:50:23;;;;;;;;;;;22.50;29.80;;;;;;5099556;28;19924;-66
2022/04/05 02:52:50;;;;;;;;;;;22.50;29.80;;;;;;5099802;28;19960;-66
2022/04/05 02:55:18;;;;;;;;;;;22.50;29.70;;;;;;5099629;28;19977;-66
2022/04/05 02:57:45;;;;;;;;;;;22.60;29.80;;;;;;5100042;28;20326;-66
2022/04/05 03:00:13;;;;;;;;;;;22.50;29.80;;;;;;5099831;28;19980;-66
2022/04/05 03:02:41;;;;;;;;;;;22.50;29.80;;;;;;5100018;28;19924;-66
2022/04/05 03:05:08;;;;;;;;;;;22.50;29.80;;;;;;5099761;28;19946;-66
2022/04/05 03:07:36;;;;;;;;;;;22.50;29.80;;;;;;5099662;28;19985;-66
2022/04/05 03:10:04;;;;;;;;;;;22.50;29.80;;;;;;5099975;28;20040;-66
2022/04/05 03:12:31;;;;;;;;;;;22.50;29.80;;;;;;5099673;28;19928;-66
2022/04/05 03:14:58;;;;;;;;;;;22.50;29.80;;;;;;5099358;28;19928;-66
2022/04/05 03:17:25;;;;;;;;;;;22.50;29.80;;;;;;5099798;28;19924;-66
2022/04/05 03:19:52;;;;;;;;;;;22.50;29.80;;;;;;5099578;28;20273;-66
2022/04/05 03:22:20;;;;;;;;;;;22.50;29.80;;;;;;5114985;28;19924;-66
2022/04/05 03:24:47;;;;;;;;;;;22.50;29.80;;;;;;5099045;28;19928;-66
2022/04/05 03:27:14;;;;;;;;;;;22.50;29.80;;;;;;5099787;28;20022;-66
2022/04/05 03:29:41;;;;;;;;;;;22.50;29.80;;;;;;5099796;28;19935;-66
2022/04/05 03:32:09;;;;;;;;;;;22.50;29.80;;;;;;5098988;28;19924;-66
2022/04/05 03:34:36;;;;;;;;;;;22.50;29.80;;;;;;5099022;28;20326;-66
2022/04/05 03:37:03;;;;;;;;;;;22.50;29.80;;;;;;5098714;28;19974;-66
2022/04/05 03:39:30;;;;;;;;;;;22.50;29.80;;;;;;5098157;28;20376;-66
2022/04/05 03:41:57;;;;;;;;;;;22.50;29.80;;;;;;5097672;28;19924;-66
2022/04/05 03:44:24;;;;;;;;;;;22.50;29.80;;;;;;5096928;28;19969;-66
2022/04/05 03:46:52;;;;;;;;;;;22.50;29.80;;;;;;5098028;28;19981;-65
2022/04/05 03:49:19;;;;;;;;;;;22.50;29.80;;;;;;5097719;28;19928;-66
2022/04/05 03:51:49;;;;;;;;;;;22.50;29.80;;;;;;5098836;28;19967;-66
2022/04/05 03:54:16;;;;;;;;;;;22.50;29.80;;;;;;5098648;28;19924;-66
2022/04/05 03:56:43;;;;;;;;;;;22.50;29.80;;;;;;5098946;28;19955;-66
2022/04/05 03:59:10;;;;;;;;;;;22.50;29.80;;;;;;5098659;28;19924;-66
2022/04/05 04:01:37;;;;;;;;;;;22.50;29.80;;;;;;5099996;28;19977;-66
2022/04/05 04:04:04;;;;;;;;;;;22.40;29.70;;;;;;5100737;28;19984;-66
2022/04/05 04:06:31;;;;;;;;;;;22.50;29.80;;;;;;5100123;28;19965;-66
2022/04/05 04:08:58;;;;;;;;;;;22.50;29.80;;;;;;5101542;28;19928;-66
2022/04/05 04:11:25;;;;;;;;;;;22.50;29.80;;;;;;5104651;28;19924;-66
2022/04/05 04:13:52;;;;;;;;;;;22.50;29.80;;;;;;5121498;28;19950;-66
2022/04/05 04:16:20;;;;;;;;;;;22.50;29.80;;;;;;5105843;28;19924;-66
2022/04/05 04:18:47;;;;;;;;;;;22.50;29.80;;;;;;5120847;28;19924;-67
2022/04/05 04:21:14;;;;;;;;;;;22.50;29.80;;;;;;5103447;28;19924;-70
2022/04/05 04:23:41;;;;;;;;;;;22.50;29.80;;;;;;5103717;28;19924;-68
2022/04/05 04:26:08;;;;;;;;;;;22.50;29.80;;;;;;5119190;28;20299;-66
2022/04/05 04:28:35;;;;;;;;;;;22.50;29.70;;;;;;5104074;28;19924;-67
2022/04/05 04:31:02;;;;;;;;;;;22.50;29.80;;;;;;5104857;28;19981;-67
2022/04/05 04:33:29;;;;;;;;;;;22.50;29.80;;;;;;5105200;28;20288;-67
2022/04/05 04:35:57;;;;;;;;;;;22.50;29.70;;;;;;5105764;28;19946;-66
2022/04/05 04:38:24;;;;;;;;;;;22.50;29.70;;;;;;5100628;28;19924;-66
2022/04/05 04:40:51;;;;;;;;;;;22.50;29.80;;;;;;5098016;28;19928;-66
2022/04/05 04:43:19;;;;;;;;;;;22.50;29.70;;;;;;5097638;28;19969;-66
2022/04/05 04:45:46;;;;;;;;;;;22.50;29.70;;;;;;5097398;28;19928;-67
2022/04/05 04:48:14;;;;;;;;;;;22.50;29.70;;;;;;5113090;28;19924;-66
2022/04/05 04:50:41;;;;;;;;;;;22.50;29.70;;;;;;5098101;28;19947;-66
2022/04/05 04:53:08;;;;;;;;;;;22.50;29.70;;;;;;5096404;28;20327;-66
2022/04/05 04:55:35;;;;;;;;;;;22.50;29.70;;;;;;5097690;28;20429;-66
2022/04/05 04:58:22;;;;;;;;;;;22.50;29.70;;;;;;5097982;28;19987;-66
2022/04/05 05:00:49;;;;;;;;;;;22.50;29.70;;;;;;5098179;28;19969;-66
2022/04/05 05:03:18;;;;;;;;;;;22.60;29.70;;;;;;5097740;28;19924;-66
2022/04/05 05:05:46;;;;;;;;;;;22.60;29.70;;;;;;5097307;28;19963;-66
2022/04/05 05:08:13;;;;;;;;;;;22.60;29.70;;;;;;5096325;28;19924;-66
2022/04/05 05:10:40;;;;;;;;;;;22.60;29.60;;;;;;5080374;28;19967;-66
2022/04/05 05:13:08;;;;;;;;;;;22.50;29.50;;;;;;5079968;28;19932;-65
2022/04/05 05:15:35;;;;;;;;;;;22.60;29.60;;;;;;5085872;28;19930;-66
2022/04/05 05:20:51;;;;;;;;;;;22.60;29.50;;;;;;5079098;28;20027;-62
2022/04/05 05:23:18;;;;;;;;;;;22.60;29.40;;;;;;5083336;28;19924;-67
2022/04/05 05:25:46;;;;;;;;;;;22.70;29.40;;;;;;5095058;28;20314;-62
2022/04/05 05:28:13;;;;;;;;;;;22.70;29.30;;;;;;5115696;28;19928;-62
2022/04/05 05:30:40;;;;;;;;;;;22.70;29.20;;;;;;5100447;28;19924;-66
2022/04/05 05:33:07;;;;;;;;;;;22.80;29.20;;;;;;5080797;28;19928;-66
2022/04/05 05:35:34;;;;;;;;;;;22.90;29.30;;;;;;5076573;28;19943;-66
2022/04/05 05:38:01;;;;;;;;;;;22.90;29.20;;;;;;5078614;28;19982;-66
2022/04/05 05:40:39;;;;;;;;;;;22.90;29.10;;;;;;5076678;28;19939;-62
2022/04/05 05:43:06;;;;;;;;;;;23.00;29.10;;;;;;5083053;28;19924;-67
2022/04/05 05:45:35;;;;;;;;;;;23.10;29.10;;;;;;5100242;28;19965;-62
2022/04/05 05:48:03;;;;;;;;;;;23.20;29.10;;;;;;5099012;28;19959;-64
2022/04/05 05:50:30;;;;;;;;;;;23.30;29.00;;;;;;5099801;28;19924;-64
2022/04/05 05:52:59;;;;;;;;;;;23.30;29.00;;;;;;5100098;28;20438;-64
2022/04/05 05:55:26;;;;;;;;;;;23.40;29.00;;;;;;5098471;28;19931;-69
2022/04/05 05:57:53;;;;;;;;;;;23.50;29.60;;;;;;5096588;28;19928;-64
2022/04/05 06:00:21;;;;;;;;;;;23.50;29.40;;;;;;5070490;28;20072;-68
2022/04/05 06:02:50;;;;;;;;;;;23.60;29.30;;;;;;5076800;28;19924;-65
2022/04/05 06:05:17;;;;;;;;;;;23.70;29.30;;;;;;5077527;28;21636;-65
2022/04/05 06:07:44;;;;;;;;;;;23.80;29.20;;;;;;5081584;28;20542;-64
2022/04/05 06:10:12;;;;;;;;;;;23.80;29.20;;;;;;5077410;28;20969;-70
2022/04/05 06:12:40;;;;;;;;;;;23.90;29.20;;;;;;5076134;28;19932;-64
2022/04/05 06:15:08;;;;;;;;;;;24.00;29.30;;;;;;5089906;28;20021;-64
2022/04/05 06:17:36;;;;;;;;;;;24.10;29.10;;;;;;5081439;28;19924;-71
2022/04/05 06:20:04;;;;;;;;;;;24.20;28.90;;;;;;5062778;28;19932;-66
2022/04/05 06:22:39;;;;;;;;;;;24.30;28.70;;;;;;5079642;28;20719;-69
2022/04/05 06:25:06;;;;;;;;;;;24.30;28.50;;;;;;5074229;28;19932;-72
2022/04/05 06:27:33;;;;;;;;;;;24.40;28.50;;;;;;5076546;28;19970;-73
2022/04/05 06:30:00;;;;;;;;;;;24.40;28.30;;;;;;5081453;28;20400;-69
2022/04/05 06:32:27;;;;;;;;;;;24.50;28.40;;;;;;5078503;28;19985;-74
2022/04/05 06:34:54;;;;;;;;;;;24.50;28.30;;;;;;5078420;28;19983;-69
2022/04/05 06:37:21;;;;;;;;;;;24.60;28.20;;;;;;5083676;28;19969;-73
2022/04/05 06:39:49;;;;;;;;;;;24.70;28.20;;;;;;5075638;28;19928;-68
2022/04/05 06:42:16;;;;;;;;;;;24.70;28.10;;;;;;5081684;28;20027;-67
2022/04/05 06:44:43;;;;;;;;;;;24.80;28.10;;;;;;5079886;28;20005;-68
2022/04/05 06:47:11;;;;;;;;;;;24.90;28.00;;;;;;5076023;28;19932;-70
2022/04/05 06:49:39;;;;;;;;;;;24.90;28.00;;;;;;5082607;28;20604;-73
2022/04/05 06:52:06;;;;;;;;;;;25.00;28.10;;;;;;5082066;28;19936;-66
2022/04/05 06:54:33;;;;;;;;;;;25.00;28.20;;;;;;5075576;28;19958;-67
2022/04/05 06:57:00;;;;;;;;;;;25.10;28.40;;;;;;5077182;28;19928;-67
2022/04/05 06:59:26;;;;;;;;;;;25.10;28.30;;;;;;5079134;28;20595;-71
2022/04/05 07:02:09;;;;;;;;;;;25.10;28.20;;;;;;5070543;28;19975;-67
2022/04/05 07:04:36;;;;;;;;;;;25.10;28.20;;;;;;5071735;28;20031;-72
2022/04/05 07:07:03;;;;;;;;;;;25.20;28.40;;;;;;5080039;28;21497;-66
2022/04/05 07:09:30;;;;;;;;;;;25.10;28.40;;;;;;5076368;28;19936;-72
2022/04/05 07:12:01;;;;;;;;;;;25.10;28.20;;;;;;5074824;28;20643;-67
2022/04/05 07:14:31;;;;;;;;;;;25.10;28.20;;;;;;5075167;28;20607;-67
2022/04/05 07:16:58;;;;;;;;;;;25.10;28.40;;;;;;5076505;28;20020;-62
2022/04/05 07:19:25;;;;;;;;;;;25.10;28.40;;;;;;5077319;28;19981;-71
2022/04/05 07:21:52;;;;;;;;;;;25.10;28.50;;;;;;5074756;28;19974;-66
2022/04/05 07:24:19;;;;;;;;;;;25.10;28.50;;;;;;5073693;28;19950;-65
2022/04/05 07:26:47;;;;;;;;;;;25.10;28.60;;;;;;5071758;28;19931;-65
2022/04/05 07:29:14;;;;;;;;;;;25.10;28.60;;;;;;5073430;28;19924;-65
2022/04/05 07:31:41;;;;;;;;;;;25.10;28.50;;;;;;5072229;28;20063;-67
2022/04/05 07:34:09;;;;;;;;;;;25.10;28.70;;;;;;5076712;28;20203;-66
2022/04/05 07:36:36;;;;;;;;;;;25.10;28.70;;;;;;5074898;28;19951;-72
2022/04/05 07:39:04;;;;;;;;;;;25.10;28.60;;;;;;5080275;28;19937;-66
2022/04/05 07:41:31;;;;;;;;;;;25.10;28.60;;;;;;5077404;28;20317;-68
2022/04/05 07:43:58;;;;;;;;;;;25.10;28.80;;;;;;5079049;28;19932;-68
2022/04/05 07:46:25;;;;;;;;;;;25.20;28.90;;;;;;5078498;28;19973;-66
2022/04/05 07:48:52;;;;;;;;;;;25.10;28.90;;;;;;5076757;28;19933;-68
2022/04/05 07:51:19;;;;;;;;;;;25.10;28.70;;;;;;5076673;28;19965;-69
2022/04/05 07:53:46;;;;;;;;;;;25.10;28.70;;;;;;5076995;28;19924;-70
2022/04/05 07:56:13;;;;;;;;;;;25.20;28.70;;;;;;5081314;28;20427;-71
2022/04/05 07:58:42;;;;;;;;;;;25.20;28.60;;;;;;5074580;28;19932;-68
2022/04/05 08:01:10;;;;;;;;;;;25.20;28.60;;;;;;5074747;28;19955;-65
2022/04/05 08:03:37;;;;;;;;;;;25.20;28.50;;;;;;5076485;28;19940;-70
2022/04/05 08:06:05;;;;;;;;;;;25.20;28.50;;;;;;5076841;28;19932;-61
2022/04/05 08:08:32;;;;;;;;;;;25.20;28.50;;;;;;5078973;28;19939;-65
2022/04/05 08:14:54;;;;;;;;;;;25.30;28.50;;;;;;5075744;28;20041;-66
2022/04/05 08:17:23;;;;;;;;;;;25.30;28.60;;;;;;5082243;28;20196;-61
2022/04/05 08:19:52;;;;;;;;;;;25.30;28.70;;;;;;5078061;28;19939;-62
2022/04/05 08:22:19;;;;;;;;;;;25.40;28.70;;;;;;5078096;28;19928;-62
2022/04/05 08:24:48;;;;;;;;;;;25.30;28.80;;;;;;5077675;28;19924;-62
2022/04/05 08:27:15;;;;;;;;;;;25.40;28.80;;;;;;5075550;28;20403;-61
2022/04/05 08:29:42;;;;;;;;;;;25.40;28.70;;;;;;5080025;28;19928;-61
2022/04/05 08:32:09;;;;;;;;;;;25.40;28.80;;;;;;5078875;28;19928;-66
2022/04/05 08:34:41;;;;;;;;;;;25.40;28.70;;;;;;5076552;28;20551;-63
2022/04/05 08:37:09;;;;;;;;;;;25.40;28.70;;;;;;5073131;28;19939;-63
2022/04/05 08:39:36;;;;;;;;;;;25.40;28.70;;;;;;5074948;28;20033;-69
2022/04/05 08:42:03;;;;;;;;;;;25.40;28.70;;;;;;5074978;28;20461;-63
2022/04/05 08:44:31;;;;;;;;;;;25.40;28.70;;;;;;5076710;28;19924;-59
2022/04/05 08:47:02;;;;;;;;;;;25.40;28.70;;;;;;5079752;28;19924;-64
2022/04/05 08:49:30;;;;;;;;;;;25.50;28.80;;;;;;5077495;28;19931;-61
2022/04/05 08:51:57;;;;;;;;;;;25.40;28.60;;;;;;5075619;28;19973;-61
2022/04/05 08:54:24;;;;;;;;;;;25.50;28.60;;;;;;5074338;28;20592;-62
2022/04/05 08:56:51;;;;;;;;;;;25.50;28.50;;;;;;5078744;28;19972;-65
2022/04/05 08:59:19;;;;;;;;;;;25.50;28.50;;;;;;5077716;28;19924;-62
2022/04/05 09:01:52;;;;;;;;;;;25.50;28.40;;;;;;5084321;28;19924;-67
2022/04/05 09:04:19;;;;;;;;;;;25.50;28.50;;;;;;5077010;28;19924;-62
2022/04/05 09:06:46;;;;;;;;;;;25.50;28.30;;;;;;5068426;28;20011;-65
2022/04/05 09:09:14;;;;;;;;;;;25.50;28.30;;;;;;5077881;28;19932;-62
2022/04/05 09:11:45;;;;;;;;;;;25.60;28.40;;;;;;5075255;28;20684;-66
2022/04/05 09:14:23;;;;;;;;;;;25.60;28.40;;;;;;5077470;28;19920;-68
2022/04/05 09:17:08;;;;;;;;;;;25.60;28.40;;;;;;5076735;28;19932;-62
2022/04/05 09:19:37;;;;;;;;;;;25.60;28.30;;;;;;5077254;28;19970;-61
2022/04/05 09:22:04;;;;;;;;;;;25.70;28.40;;;;;;5077905;28;19939;-68
2022/04/05 09:24:32;;;;;;;;;;;25.70;28.40;;;;;;5073568;28;19932;-62
2022/04/05 09:27:00;;;;;;;;;;;25.70;28.40;;;;;;5075884;28;19957;-67
2022/04/05 09:29:40;;;;;;;;;;;25.70;28.30;;;;;;5073792;28;19973;-68
2022/04/05 09:32:08;;;;;;;;;;;25.70;28.20;;;;;;5077228;28;19963;-68
2022/04/05 09:34:48;;;;;;;;;;;25.80;28.20;;;;;;5093718;28;19928;-68
2022/04/05 09:37:16;;;;;;;;;;;25.80;28.20;;;;;;5093107;28;20027;-66
2022/04/05 09:39:44;;;;;;;;;;;25.80;28.10;;;;;;5086371;28;19920;-66
2022/04/05 09:42:11;;;;;;;;;;;25.80;28.10;;;;;;5080103;28;20292;-61
2022/04/05 09:44:40;;;;;;;;;;;25.90;28.10;;;;;;5072975;28;19932;-62
2022/04/05 09:47:10;;;;;;;;;;;25.90;28.10;;;;;;5089379;28;19928;-65
2022/04/05 09:49:38;;;;;;;;;;;25.90;28.10;;;;;;5081261;28;19956;-63
2022/04/05 09:52:25;;;;;;;;;;;26.00;28.10;;;;;;5077229;28;19939;-63
2022/04/05 09:54:53;;;;;;;;;;;25.90;28.00;;;;;;5085545;28;20550;-68
2022/04/05 09:57:30;;;;;;;;;;;25.90;28.10;;;;;;5077251;28;19943;-67
2022/04/05 10:03:08;;;;;;;;;;;25.90;28.10;;;;;;5080598;28;19944;-67
2022/04/05 10:05:36;;;;;;;;;;;26.00;28.30;;;;;;5073023;28;19924;-63
2022/04/05 10:08:03;;;;;;;;;;;25.90;28.20;;;;;;5080320;28;19927;-63
2022/04/05 10:10:31;;;;;;;;;;;25.90;28.20;;;;;;5068558;28;19973;-68
2022/04/05 10:13:04;;;;;;;;;;;25.90;28.10;;;;;;5078097;28;19928;-67
2022/04/05 10:15:31;;;;;;;;;;;25.90;27.90;;;;;;5079284;28;19927;-63
2022/04/05 10:17:58;;;;;;;;;;;25.90;27.80;;;;;;5082193;28;19932;-67
2022/04/05 10:20:27;;;;;;;;;;;25.90;27.70;;;;;;5083376;28;19928;-63
2022/04/05 10:22:57;;;;;;;;;;;25.90;27.70;;;;;;5078279;28;20019;-67
2022/04/05 10:25:25;;;;;;;;;;;25.90;27.70;;;;;;5079281;28;19974;-67
2022/04/05 10:27:52;;;;;;;;;;;25.90;27.70;;;;;;5088482;28;19936;-67
2022/04/05 10:30:24;;;;;;;;;;;25.90;27.50;;;;;;5072304;28;19960;-63
2022/04/05 10:33:01;;;;;;;;;;;25.90;27.70;;;;;;5072801;28;19939;-65
2022/04/05 10:35:41;;;;;;;;;;;25.90;27.60;;;;;;5064866;28;19960;-64
2022/04/05 10:38:13;;;;;;;;;;;25.90;27.30;;;;;;5078966;28;19932;-61
2022/04/05 10:40:40;;;;;;;;;;;25.80;26.80;;;;;;5083320;28;20442;-69
2022/04/05 10:43:18;;;;;;;;;;;25.70;27.10;;;;;;5073977;28;19932;-72
2022/04/05 10:45:46;;;;;;;;;;;25.70;27.30;;;;;;5079229;28;19942;-68
2022/04/05 10:48:23;;;;;;;;;;;25.80;27.50;;;;;;5075891;28;20376;-70
2022/04/05 10:51:12;;;;;;;;;;;25.80;27.60;;;;;;5074793;28;20013;-68
2022/04/05 10:53:41;;;;;;;;;;;25.80;27.70;;;;;;5072012;28;19928;-68
2022/04/05 10:56:11;;;;;;;;;;;25.80;27.70;;;;;;5078889;28;19974;-72
2022/04/05 10:58:58;;;;;;;;;;;25.80;27.70;;;;;;5074415;28;20027;-70
2022/04/05 11:01:35;;;;;;;;;;;25.90;27.80;;;;;;5090331;27;19989;-71
2022/04/05 11:04:20;;;;;;;;;;;25.90;27.80;;;;;;5083099;28;19931;-71
2022/04/05 11:07:05;;;;;;;;;;;25.90;27.80;;;;;;5087829;28;19932;-66
2022/04/05 11:09:35;;;;;;;;;;;25.90;27.80;;;;;;5081684;28;20457;-64
2022/04/05 11:12:03;;;;;;;;;;;25.90;27.70;;;;;;5074111;28;20027;-67
2022/04/05 11:14:45;;;;;;;;;;;26.00;27.80;;;;;;5074010;28;21600;-66
2022/04/05 11:17:28;;;;;;;;;;;25.90;27.80;;;;;;5089910;28;20008;-72
2022/04/05 11:19:57;;;;;;;;;;;25.90;27.80;;;;;;5082251;28;19989;-68
2022/04/05 11:22:27;;;;;;;;;;;25.90;27.70;;;;;;5076746;28;20001;-71
2022/04/05 11:25:06;;;;;;;;;;;25.90;27.70;;;;;;5071195;28;20667;-63
2022/04/05 11:27:48;;;;;;;;;;;25.90;27.70;;;;;;5070437;28;19924;-65
2022/04/05 11:30:37;;;;;;;;;;;25.90;27.70;;;;;;5075487;28;19968;-65
2022/04/05 11:33:18;;;;;;;;;;;25.90;27.70;;;;;;5072986;28;20001;-61
2022/04/05 11:35:49;;;;;;;;;;;26.00;27.80;;;;;;5079418;28;19947;-66
2022/04/05 11:38:34;;;;;;;;;;;26.00;27.80;;;;;;5075488;28;20623;-64
2022/04/05 11:41:08;;;;;;;;;;;26.00;27.80;;;;;;5073125;28;20036;-68
2022/04/05 11:43:39;;;;;;;;;;;26.00;27.90;;;;;;5081336;28;19931;-68
2022/04/05 11:46:09;;;;;;;;;;;26.00;27.70;;;;;;5098105;28;19924;-70
2022/04/05 11:48:45;;;;;;;;;;;26.00;27.70;;;;;;5098475;28;19946;-69
2022/04/05 11:51:13;;;;;;;;;;;26.00;27.80;;;;;;5096468;28;19928;-70
2022/04/05 11:53:42;;;;;;;;;;;26.00;27.80;;;;;;5069373;28;19936;-66
2022/04/05 11:56:10;;;;;;;;;;;26.00;27.80;;;;;;5072939;28;19924;-72
2022/04/05 11:58:41;;;;;;;;;;;26.00;27.80;;;;;;5073808;28;20697;-71
2022/04/05 12:01:09;;;;;;;;;;;26.00;27.80;;;;;;5076733;28;19959;-70
2022/04/05 12:03:50;;;;;;;;;;;26.00;27.90;;;;;;5079043;28;19932;-71
2022/04/05 12:06:18;;;;;;;;;;;26.00;27.80;;;;;;5084449;28;20831;-69
2022/04/05 12:08:51;;;;;;;;;;;26.00;27.80;;;;;;5079396;28;20425;-66
2022/04/05 12:11:19;;;;;;;;;;;26.00;27.80;;;;;;5083108;28;20778;-66
2022/04/05 12:13:54;;;;;;;;;;;26.00;27.80;;;;;;5080911;28;19946;-66
2022/04/05 12:16:22;;;;;;;;;;;26.00;27.90;;;;;;5111387;28;19970;-60
2022/04/05 12:18:51;;;;;;;;;;;26.00;27.80;;;;;;5092681;28;20662;-62
2022/04/05 12:21:21;;;;;;;;;;;26.00;27.90;;;;;;5059984;28;19924;-65
2022/04/05 12:23:49;;;;;;;;;;;26.00;27.80;;;;;;5092578;28;19928;-65
2022/04/05 12:26:23;;;;;;;;;;;26.10;27.90;;;;;;5079180;28;19971;-66
2022/04/05 12:28:51;;;;;;;;;;;26.10;27.90;;;;;;5077700;28;19924;-61
2022/04/05 12:38:12;;;;;;;;;;;26.10;27.80;;;;;;5100063;28;19939;-63
2022/04/05 12:40:40;;;;;;;;;;;26.10;27.80;;;;;;5100116;28;19945;-66
2022/04/05 12:43:15;;;;;;;;;;;26.00;27.90;;;;;;5093244;28;19928;-61
2022/04/05 12:49:17;;;;;;;;;;;26.00;27.90;;;;;;5178496;22;20012;-66
2022/04/05 12:55:34;;;;;;;;;;;26.00;27.90;;;;;;5383045;22;19925;-65
2022/04/05 12:58:01;;;;;;;;;;;26.10;27.90;;;;;;4988083;28;19992;-68
2022/04/05 13:00:41;;;;;;;;;;;26.10;27.80;;;;;;4956336;28;19934;-66
2022/04/05 13:03:09;;;;;;;;;;;26.10;27.80;;;;;;4957097;28;19934;-69
2022/04/05 13:08:35;;;;;;;;;;;26.10;28.10;;;;;;4960311;28;19937;-67
2022/04/05 13:11:20;;;;;;;;;;;26.20;28.10;;;;;;4960371;28;19934;-66
2022/04/05 13:13:48;;;;;;;;;;;26.20;28.20;;;;;;4961081;28;19930;-67
2022/04/05 13:16:15;;;;;;;;;;;26.30;28.30;;;;;;4949876;28;19930;-66
2022/04/05 13:18:44;;;;;;;;;;;26.30;28.40;;;;;;4958044;28;19934;-68
2022/04/05 13:21:12;;;;;;;;;;;26.30;28.50;;;;;;4956579;28;20743;-66
2022/04/05 13:23:40;;;;;;;;;;;26.30;28.30;;;;;;4957464;28;19941;-63
2022/04/05 13:26:26;;;;;;;;;;;26.30;28.30;;;;;;4960670;28;19926;-64
2022/04/05 13:29:01;;;;;;;;;;;26.40;28.40;;;;;;4962759;28;20464;-67
2022/04/05 13:31:31;;;;;;;;;;;26.40;28.30;;;;;;4960088;28;20337;-65
2022/04/05 13:33:58;;;;;;;;;;;26.40;28.20;;;;;;4958568;28;19930;-67
2022/04/05 13:36:25;;;;;;;;;;;26.40;28.20;;;;;;4961522;28;19930;-74
2022/04/05 13:38:52;;;;;;;;;;;26.40;28.00;;;;;;4956354;28;19930;-75
2022/04/05 13:41:19;;;;;;;;;;;26.40;28.20;;;;;;4964297;28;19930;-77
2022/04/05 13:43:46;;;;;;;;;;;26.40;28.40;;;;;;4960673;28;19934;-74
2022/04/05 13:46:13;;;;;;;;;;;26.40;28.20;;;;;;4959653;28;19977;-77
2022/04/05 13:48:58;;;;;;;;;;;26.40;28.20;;;;;;4965589;28;20044;-71
2022/04/05 13:51:26;;;;;;;;;;;26.40;28.20;;;;;;4962584;28;19949;-80
2022/04/05 13:54:14;;;;;;;;;;;26.40;28.10;;;;;;4964593;28;20343;-73
2022/04/05 13:56:41;;;;;;;;;;;26.40;28.00;;;;;;4954162;28;20310;-79
2022/04/05 13:59:09;;;;;;;;;;;26.50;27.80;;;;;;4959881;28;20509;-77
2022/04/05 14:01:36;;;;;;;;;;;26.50;27.90;;;;;;4966051;28;20181;-72
2022/04/05 14:04:04;;;;;;;;;;;26.40;27.90;;;;;;4969868;28;20146;-76
2022/04/05 14:06:31;;;;;;;;;;;26.40;28.50;;;;;;4963921;28;19927;-74
2022/04/05 14:08:58;;;;;;;;;;;26.40;28.00;;;;;;4968150;28;19972;-74
2022/04/05 14:11:25;;;;;;;;;;;26.50;28.00;;;;;;4965693;28;19953;-73
2022/04/05 14:13:54;;;;;;;;;;;26.50;27.80;;;;;;4966688;28;20029;-69
2022/04/05 14:16:21;;;;;;;;;;;26.50;27.80;;;;;;4967469;28;19931;-72
2022/04/05 14:18:49;;;;;;;;;;;26.50;27.80;;;;;;4971401;28;19952;-70
2022/04/05 14:21:30;;;;;;;;;;;26.50;27.90;;;;;;4951302;28;20074;-73
2022/04/05 14:23:57;;;;;;;;;;;26.50;28.10;;;;;;4969324;28;19934;-71
2022/04/05 14:26:24;;;;;;;;;;;26.50;28.10;;;;;;4968047;28;19956;-74
2022/04/05 14:28:51;;;;;;;;;;;26.50;27.80;;;;;;4967359;28;19930;-72
2022/04/05 14:31:18;;;;;;;;;;;26.60;27.80;;;;;;4965346;28;20689;-73
2022/04/05 14:33:45;;;;;;;;;;;26.60;27.80;;;;;;4954903;28;19962;-72
2022/04/05 14:36:12;;;;;;;;;;;26.60;27.70;;;;;;4967241;28;19934;-70
2022/04/05 14:38:39;;;;;;;;;;;26.60;27.50;;;;;;4970871;28;19949;-72
2022/04/05 14:41:06;;;;;;;;;;;26.60;27.40;;;;;;4976228;28;20078;-72
2022/04/05 14:43:33;;;;;;;;;;;26.60;27.40;;;;;;4972081;28;19948;-69
2022/04/05 14:46:01;;;;;;;;;;;26.60;27.30;;;;;;4984741;28;20471;-70
2022/04/05 14:48:28;;;;;;;;;;;26.50;27.40;;;;;;4970237;28;20005;-73
2022/04/05 14:50:55;;;;;;;;;;;26.50;27.40;;;;;;4954956;28;20422;-73
2022/04/05 14:53:24;;;;;;;;;;;26.50;27.40;;;;;;4967356;28;19930;-75
2022/04/05 14:55:52;;;;;;;;;;;26.50;27.40;;;;;;4965426;28;19981;-73
2022/04/05 14:58:20;;;;;;;;;;;26.50;27.50;;;;;;4966382;28;19972;-74
2022/04/05 15:00:47;;;;;;;;;;;26.50;27.40;;;;;;4970700;28;20397;-74
2022/04/05 15:03:14;;;;;;;;;;;26.50;27.50;;;;;;4968380;28;20268;-74